Kitanomaru — JD2835 — position and weather

sailwx.info

Track history (hours):
 
Tides and Currents Weather Stations Pressure Air Temp Water Temp Dewpoint Dewpoint Depression Visibility Wind Speed Wind Dir Waves Ship Positions

Kitanomaru

Last reported at 2015-Mar-27 21:33 UTC. Time now 2015-Mar-27 22:12 UTC.
Position N 35°36' E 140°07'.

Length 39 m; draft 4 m.

Type: Tug. MMSI: 431000773.

Date/timePositionNaut miles runAvg speedWind from/ knotsBaromVisibWave heightAir tempDewpointWater temp
2015-Mar-27 21:33N 35°36' E 140°07'0 0.1
2015-Mar-27 20:33N 35°36' E 140°07'0 0.0
2015-Mar-27 19:33N 35°36' E 140°07'0 0.0
2015-Mar-27 18:33N 35°36' E 140°07'0 0.0
2015-Mar-27 17:33N 35°36' E 140°07'0 0.0
2015-Mar-27 16:33N 35°36' E 140°07'0 0.0
2015-Mar-27 15:33N 35°36' E 140°07'0 0.0
2015-Mar-27 14:33N 35°36' E 140°07'0 0.0
2015-Mar-27 13:33N 35°36' E 140°07'0 0.0
2015-Mar-27 12:33N 35°36' E 140°07'0 0.0
2015-Mar-27 11:33N 35°36' E 140°07'0 0.0
2015-Mar-27 10:33N 35°36' E 140°07'0 0.4
2015-Mar-27 09:33N 35°35' E 140°07'10 9.7
2015-Mar-27 08:33N 35°28' E 139°58'0 0.1
2015-Mar-27 07:33N 35°28' E 139°58'2 2.0
2015-Mar-27 06:33N 35°30' E 139°57'2 1.5
2015-Mar-27 05:33N 35°29' E 139°58'1 0.8
2015-Mar-27 04:33N 35°29' E 139°59'9 8.6
2015-Mar-27 03:33N 35°35' E 140°05'1 1.2
2015-Mar-27 02:33N 35°36' E 140°06'7 6.7
2015-Mar-27 01:33N 35°32' E 140°00'1 1.0
2015-Mar-27 00:33N 35°31' E 139°59'1 1.0
2015-Mar-26 23:33N 35°30' E 139°59'3 2.9
2015-Mar-26 22:33N 35°27' E 139°58'2 1.7
2015-Mar-26 21:33N 35°29' E 139°57'4 3.5
2015-Mar-26 20:33N 35°31' E 140°00'7 7.0
2015-Mar-26 19:33N 35°36' E 140°07'0 0.0
2015-Mar-26 18:33N 35°36' E 140°07'0 0.0
2015-Mar-26 17:33N 35°36' E 140°07'0 0.0
2015-Mar-26 16:33N 35°36' E 140°07'0 0.0
2015-Mar-26 15:33N 35°36' E 140°07'0 0.0
2015-Mar-26 14:33N 35°36' E 140°07'0 0.0
2015-Mar-26 13:33N 35°36' E 140°07'0 0.0
2015-Mar-26 12:33N 35°36' E 140°07'0 0.0
2015-Mar-26 11:33N 35°36' E 140°07'0 0.0
2015-Mar-26 10:33N 35°36' E 140°07'0 0.0
2015-Mar-26 09:33N 35°36' E 140°07'0 0.0
2015-Mar-26 08:33N 35°36' E 140°07'0 0.0
2015-Mar-26 07:33N 35°36' E 140°07'0 0.3
2015-Mar-26 06:33N 35°35' E 140°07'5 4.6
2015-Mar-26 05:33N 35°32' E 140°03'3 3.1
2015-Mar-26 04:33N 35°31' E 139°60'3 2.5
2015-Mar-26 03:32N 35°33' E 140°01'5 4.8
2015-Mar-26 02:33N 35°35' E 140°06'6 6.3
2015-Mar-26 01:33N 35°32' E 139°59'3 2.9
2015-Mar-26 00:33N 35°31' E 139°56'0 0.1
2015-Mar-25 23:33N 35°31' E 139°56'3 3.1
2015-Mar-25 22:34N 35°29' E 139°53'8 7.8
2015-Mar-25 21:33N 35°33' E 140°01'5 5.3
2015-Mar-25 20:33N 35°36' E 140°07'0 0.0
2015-Mar-25 19:33N 35°36' E 140°07'0 0.0
2015-Mar-25 18:33N 35°36' E 140°07'0 0.0
2015-Mar-25 17:33N 35°36' E 140°07'0 0.0
2015-Mar-25 16:33N 35°36' E 140°07'0 0.0
2015-Mar-25 15:33N 35°36' E 140°07'0 0.0
2015-Mar-25 14:33N 35°36' E 140°07'0 0.0
2015-Mar-25 13:33N 35°36' E 140°07'0 0.0
2015-Mar-25 12:33N 35°36' E 140°07'0 0.0
2015-Mar-25 11:33N 35°36' E 140°07'0 0.0
2015-Mar-25 10:33N 35°36' E 140°07'0 0.0
2015-Mar-25 09:33N 35°36' E 140°07'0 0.0
2015-Mar-25 08:33N 35°36' E 140°07'0 0.0
2015-Mar-25 07:33N 35°36' E 140°07'0 0.0
2015-Mar-25 06:33N 35°36' E 140°07'7 7.5
2015-Mar-25 05:33N 35°34' E 139°58'3 3.2
2015-Mar-25 04:33N 35°32' E 140°00'7 6.7
2015-Mar-25 03:33N 35°36' E 140°07'0 0.0
2015-Mar-25 02:33N 35°36' E 140°07'9 8.9
2015-Mar-25 01:33N 35°31' E 139°57'1 1.3
2015-Mar-25 00:33N 35°31' E 139°56'1 1.1
2015-Mar-24 23:33N 35°30' E 139°55'1 0.6
2015-Mar-24 22:33N 35°30' E 139°54'8 8.4
2015-Mar-24 21:33N 35°35' E 140°03'3 2.7
2015-Mar-24 20:33N 35°36' E 140°06'1 1.2
2015-Mar-24 19:33N 35°36' E 140°07'0 0.0
2015-Mar-24 18:33N 35°36' E 140°07'0 0.0
2015-Mar-24 17:33N 35°36' E 140°07'0 0.0
2015-Mar-24 16:33N 35°36' E 140°07'0 0.0
2015-Mar-24 15:33N 35°36' E 140°07'0 0.0
2015-Mar-24 14:33N 35°36' E 140°07'0 0.0
2015-Mar-24 13:33N 35°36' E 140°07'0 0.0
2015-Mar-24 12:32N 35°36' E 140°07'0 0.0
2015-Mar-24 11:33N 35°36' E 140°07'0 0.0
2015-Mar-24 10:33N 35°36' E 140°07'0 0.0
2015-Mar-24 09:33N 35°36' E 140°07'10 9.7
2015-Mar-24 08:32N 35°29' E 139°58'1 0.6
2015-Mar-24 07:33N 35°29' E 139°57'2 2.3
2015-Mar-24 06:33N 35°31' E 139°58'8 8.2
2015-Mar-24 05:33N 35°36' E 140°05'2 1.9
2015-Mar-24 04:33N 35°35' E 140°04'4 3.8
2015-Mar-24 03:33N 35°34' E 139°59'6 5.5
2015-Mar-24 02:33N 35°35' E 140°06'1 1.0
2015-Mar-24 01:33N 35°36' E 140°07'0 0.0
2015-Mar-24 00:33N 35°36' E 140°07'0 0.0
2015-Mar-23 23:33N 35°36' E 140°07'0 0.0
2015-Mar-23 22:33N 35°36' E 140°07'0 0.0
2015-Mar-23 21:33N 35°36' E 140°07'0 0.0
2015-Mar-23 20:33N 35°36' E 140°07'0 0.0
2015-Mar-23 19:33N 35°36' E 140°07'0 0.0
2015-Mar-23 18:33N 35°36' E 140°07'0 0.0
2015-Mar-23 17:33N 35°36' E 140°07'0 0.0
2015-Mar-23 16:33N 35°36' E 140°07'0 0.0
2015-Mar-23 15:33N 35°36' E 140°07'0 0.0
2015-Mar-23 14:33N 35°36' E 140°07'0 0.0
2015-Mar-23 13:33N 35°36' E 140°07'0 0.0
2015-Mar-23 12:33N 35°36' E 140°07'1010.3
2015-Mar-23 11:33N 35°29' E 139°58'0 0.3
2015-Mar-23 10:34N 35°28' E 139°58'9 9.2
2015-Mar-23 09:33N 35°35' E 140°05'1 1.4
2015-Mar-23 08:33N 35°36' E 140°07'1 0.9
2015-Mar-23 07:33N 35°35' E 140°06'4 4.3
2015-Mar-23 06:33N 35°34' E 140°01'4 4.3
2015-Mar-23 05:33N 35°32' E 139°57'0 0.3
2015-Mar-23 04:33N 35°32' E 139°56'0 0.0
2015-Mar-23 03:33N 35°32' E 139°56'0 0.0
2015-Mar-23 02:33N 35°32' E 139°56'5 4.7
2015-Mar-23 01:34N 35°29' E 140°00'4 3.6
2015-Mar-23 00:33N 35°31' E 139°57'8 8.5
2015-Mar-22 23:34N 35°35' E 140°06'0 0.5
2015-Mar-22 22:33N 35°36' E 140°07'0 0.0
2015-Mar-22 21:33N 35°36' E 140°07'0 0.0
2015-Mar-22 20:33N 35°36' E 140°07'0 0.0
2015-Mar-22 19:33N 35°36' E 140°07'0 0.0
2015-Mar-22 18:33N 35°36' E 140°07'0 0.0
2015-Mar-22 17:33N 35°36' E 140°07'0 0.0
2015-Mar-22 16:33N 35°36' E 140°07'0 0.0
2015-Mar-22 15:33N 35°36' E 140°07'0 0.0
2015-Mar-22 14:33N 35°36' E 140°07'0 0.0
2015-Mar-22 13:33N 35°36' E 140°07'0 0.0
2015-Mar-22 12:33N 35°36' E 140°07'0 0.0
2015-Mar-22 11:33N 35°36' E 140°07'0 0.0
2015-Mar-22 10:33N 35°36' E 140°07'10 1.7
2015-Mar-22 04:32N 35°30' E 139°57'2 1.8
2015-Mar-22 03:30N 35°29' E 139°55'2 0.1
2015-Mar-21 03:27N 35°31' E 139°55'5 0.2
2015-Mar-20 06:07N 35°29' E 140°00'0 0.4
2015-Mar-20 05:33N 35°29' E 140°00'4 3.7
2015-Mar-20 04:30N 35°31' E 139°56'3 2.6
2015-Mar-20 03:24N 35°28' E 139°58'1 1.1
2015-Mar-20 02:32N 35°29' E 139°57'2 0.0
2015-Mar-18 01:15N 35°31' E 139°56'0 0.4
2015-Mar-18 00:33N 35°31' E 139°56'3 1.2
2015-Mar-17 22:19N 35°29' E 139°59'  
Track history (hours):
 
Tides and Currents Weather Stations Pressure Air Temp Water Temp Dewpoint Dewpoint Depression Visibility Wind Speed Wind Dir Waves Ship Positions

Kitanomaru

Last reported at 2015-Mar-27 21:33 UTC. Time now 2015-Mar-27 22:12 UTC.
Position N 35°36' E 140°07'.

Length 39 m; draft 4 m.

Type: Tug. MMSI: 431000773.

Date/timePositionNaut miles runAvg speedWind from/ knotsBaromVisibWave heightAir tempDewpointWater temp
2015-Mar-27 21:33N 35°36' E 140°07'0 0.1
2015-Mar-27 20:33N 35°36' E 140°07'0 0.0
2015-Mar-27 19:33N 35°36' E 140°07'0 0.0
2015-Mar-27 18:33N 35°36' E 140°07'0 0.0
2015-Mar-27 17:33N 35°36' E 140°07'0 0.0
2015-Mar-27 16:33N 35°36' E 140°07'0 0.0
2015-Mar-27 15:33N 35°36' E 140°07'0 0.0
2015-Mar-27 14:33N 35°36' E 140°07'0 0.0
2015-Mar-27 13:33N 35°36' E 140°07'0 0.0
2015-Mar-27 12:33N 35°36' E 140°07'0 0.0
2015-Mar-27 11:33N 35°36' E 140°07'0 0.0
2015-Mar-27 10:33N 35°36' E 140°07'0 0.4
2015-Mar-27 09:33N 35°35' E 140°07'10 9.7
2015-Mar-27 08:33N 35°28' E 139°58'0 0.1
2015-Mar-27 07:33N 35°28' E 139°58'2 2.0
2015-Mar-27 06:33N 35°30' E 139°57'2 1.5
2015-Mar-27 05:33N 35°29' E 139°58'1 0.8
2015-Mar-27 04:33N 35°29' E 139°59'9 8.6
2015-Mar-27 03:33N 35°35' E 140°05'1 1.2
2015-Mar-27 02:33N 35°36' E 140°06'7 6.7
2015-Mar-27 01:33N 35°32' E 140°00'1 1.0
2015-Mar-27 00:33N 35°31' E 139°59'1 1.0
2015-Mar-26 23:33N 35°30' E 139°59'3 2.9
2015-Mar-26 22:33N 35°27' E 139°58'2 1.7
2015-Mar-26 21:33N 35°29' E 139°57'4 3.5
2015-Mar-26 20:33N 35°31' E 140°00'7 7.0
2015-Mar-26 19:33N 35°36' E 140°07'0 0.0
2015-Mar-26 18:33N 35°36' E 140°07'0 0.0
2015-Mar-26 17:33N 35°36' E 140°07'0 0.0
2015-Mar-26 16:33N 35°36' E 140°07'0 0.0
2015-Mar-26 15:33N 35°36' E 140°07'0 0.0
2015-Mar-26 14:33N 35°36' E 140°07'0 0.0
2015-Mar-26 13:33N 35°36' E 140°07'0 0.0
2015-Mar-26 12:33N 35°36' E 140°07'0 0.0
2015-Mar-26 11:33N 35°36' E 140°07'0 0.0
2015-Mar-26 10:33N 35°36' E 140°07'0 0.0
2015-Mar-26 09:33N 35°36' E 140°07'0 0.0
2015-Mar-26 08:33N 35°36' E 140°07'0 0.0
2015-Mar-26 07:33N 35°36' E 140°07'0 0.3
2015-Mar-26 06:33N 35°35' E 140°07'5 4.6
2015-Mar-26 05:33N 35°32' E 140°03'3 3.1
2015-Mar-26 04:33N 35°31' E 139°60'3 2.5
2015-Mar-26 03:32N 35°33' E 140°01'5 4.8
2015-Mar-26 02:33N 35°35' E 140°06'6 6.3
2015-Mar-26 01:33N 35°32' E 139°59'3 2.9
2015-Mar-26 00:33N 35°31' E 139°56'0 0.1
2015-Mar-25 23:33N 35°31' E 139°56'3 3.1
2015-Mar-25 22:34N 35°29' E 139°53'8 7.8
2015-Mar-25 21:33N 35°33' E 140°01'5 5.3
2015-Mar-25 20:33N 35°36' E 140°07'0 0.0
2015-Mar-25 19:33N 35°36' E 140°07'0 0.0
2015-Mar-25 18:33N 35°36' E 140°07'0 0.0
2015-Mar-25 17:33N 35°36' E 140°07'0 0.0
2015-Mar-25 16:33N 35°36' E 140°07'0 0.0
2015-Mar-25 15:33N 35°36' E 140°07'0 0.0
2015-Mar-25 14:33N 35°36' E 140°07'0 0.0
2015-Mar-25 13:33N 35°36' E 140°07'0 0.0
2015-Mar-25 12:33N 35°36' E 140°07'0 0.0
2015-Mar-25 11:33N 35°36' E 140°07'0 0.0
2015-Mar-25 10:33N 35°36' E 140°07'0 0.0
2015-Mar-25 09:33N 35°36' E 140°07'0 0.0
2015-Mar-25 08:33N 35°36' E 140°07'0 0.0
2015-Mar-25 07:33N 35°36' E 140°07'0 0.0
2015-Mar-25 06:33N 35°36' E 140°07'7 7.5
2015-Mar-25 05:33N 35°34' E 139°58'3 3.2
2015-Mar-25 04:33N 35°32' E 140°00'7 6.7
2015-Mar-25 03:33N 35°36' E 140°07'0 0.0
2015-Mar-25 02:33N 35°36' E 140°07'9 8.9
2015-Mar-25 01:33N 35°31' E 139°57'1 1.3
2015-Mar-25 00:33N 35°31' E 139°56'1 1.1
2015-Mar-24 23:33N 35°30' E 139°55'1 0.6
2015-Mar-24 22:33N 35°30' E 139°54'8 8.4
2015-Mar-24 21:33N 35°35' E 140°03'3 2.7
2015-Mar-24 20:33N 35°36' E 140°06'1 1.2
2015-Mar-24 19:33N 35°36' E 140°07'0 0.0
2015-Mar-24 18:33N 35°36' E 140°07'0 0.0
2015-Mar-24 17:33N 35°36' E 140°07'0 0.0
2015-Mar-24 16:33N 35°36' E 140°07'0 0.0
2015-Mar-24 15:33N 35°36' E 140°07'0 0.0
2015-Mar-24 14:33N 35°36' E 140°07'0 0.0
2015-Mar-24 13:33N 35°36' E 140°07'0 0.0
2015-Mar-24 12:32N 35°36' E 140°07'0 0.0
2015-Mar-24 11:33N 35°36' E 140°07'0 0.0
2015-Mar-24 10:33N 35°36' E 140°07'0 0.0
2015-Mar-24 09:33N 35°36' E 140°07'10 9.7
2015-Mar-24 08:32N 35°29' E 139°58'1 0.6
2015-Mar-24 07:33N 35°29' E 139°57'2 2.3
2015-Mar-24 06:33N 35°31' E 139°58'8 8.2
2015-Mar-24 05:33N 35°36' E 140°05'2 1.9
2015-Mar-24 04:33N 35°35' E 140°04'4 3.8
2015-Mar-24 03:33N 35°34' E 139°59'6 5.5
2015-Mar-24 02:33N 35°35' E 140°06'1 1.0
2015-Mar-24 01:33N 35°36' E 140°07'0 0.0
2015-Mar-24 00:33N 35°36' E 140°07'0 0.0
2015-Mar-23 23:33N 35°36' E 140°07'0 0.0
2015-Mar-23 22:33N 35°36' E 140°07'0 0.0
2015-Mar-23 21:33N 35°36' E 140°07'0 0.0
2015-Mar-23 20:33N 35°36' E 140°07'0 0.0
2015-Mar-23 19:33N 35°36' E 140°07'0 0.0
2015-Mar-23 18:33N 35°36' E 140°07'0 0.0
2015-Mar-23 17:33N 35°36' E 140°07'0 0.0
2015-Mar-23 16:33N 35°36' E 140°07'0 0.0
2015-Mar-23 15:33N 35°36' E 140°07'0 0.0
2015-Mar-23 14:33N 35°36' E 140°07'0 0.0
2015-Mar-23 13:33N 35°36' E 140°07'0 0.0
2015-Mar-23 12:33N 35°36' E 140°07'1010.3
2015-Mar-23 11:33N 35°29' E 139°58'0 0.3
2015-Mar-23 10:34N 35°28' E 139°58'9 9.2
2015-Mar-23 09:33N 35°35' E 140°05'1 1.4
2015-Mar-23 08:33N 35°36' E 140°07'1 0.9
2015-Mar-23 07:33N 35°35' E 140°06'4 4.3
2015-Mar-23 06:33N 35°34' E 140°01'4 4.3
2015-Mar-23 05:33N 35°32' E 139°57'0 0.3
2015-Mar-23 04:33N 35°32' E 139°56'0 0.0
2015-Mar-23 03:33N 35°32' E 139°56'0 0.0
2015-Mar-23 02:33N 35°32' E 139°56'5 4.7
2015-Mar-23 01:34N 35°29' E 140°00'4 3.6
2015-Mar-23 00:33N 35°31' E 139°57'8 8.5
2015-Mar-22 23:34N 35°35' E 140°06'0 0.5
2015-Mar-22 22:33N 35°36' E 140°07'0 0.0
2015-Mar-22 21:33N 35°36' E 140°07'0 0.0
2015-Mar-22 20:33N 35°36' E 140°07'0 0.0
2015-Mar-22 19:33N 35°36' E 140°07'0 0.0
2015-Mar-22 18:33N 35°36' E 140°07'0 0.0
2015-Mar-22 17:33N 35°36' E 140°07'0 0.0
2015-Mar-22 16:33N 35°36' E 140°07'0 0.0
2015-Mar-22 15:33N 35°36' E 140°07'0 0.0
2015-Mar-22 14:33N 35°36' E 140°07'0 0.0
2015-Mar-22 13:33N 35°36' E 140°07'0 0.0
2015-Mar-22 12:33N 35°36' E 140°07'0 0.0
2015-Mar-22 11:33N 35°36' E 140°07'0 0.0
2015-Mar-22 10:33N 35°36' E 140°07'10 1.7
2015-Mar-22 04:32N 35°30' E 139°57'2 1.8
2015-Mar-22 03:30N 35°29' E 139°55'2 0.1
2015-Mar-21 03:27N 35°31' E 139°55'5 0.2
2015-Mar-20 06:07N 35°29' E 140°00'0 0.4
2015-Mar-20 05:33N 35°29' E 140°00'4 3.7
2015-Mar-20 04:30N 35°31' E 139°56'3 2.6
2015-Mar-20 03:24N 35°28' E 139°58'1 1.1
2015-Mar-20 02:32N 35°29' E 139°57'2 0.0
2015-Mar-18 01:15N 35°31' E 139°56'0 0.4
2015-Mar-18 00:33N 35°31' E 139°56'3 1.2
2015-Mar-17 22:19N 35°29' E 139°59'  

Dump ship's entire track history